Time;durP1;ratioP1;P1;durP2;ratioP2;P2;SDS_P1;SDS_P2;PMS_P1;PMS_P2;Temp;Humidity;BMP_temperature;BMP_pressure;BME280_temperature;BME280_humidity;BME280_pressure;Samples;Min_cycle;Max_cycle;Signal;HPM_P1;HPM_P2
2023/06/23 00:02:01;;;;;;;3.63;2.80;;;21.50;97.30;;;;;;4894918;29;20452;-88
2023/06/23 00:04:33;;;;;;;1.20;1.10;;;21.50;97.30;;;;;;4895792;29;20441;-86
2023/06/23 00:07:01;;;;;;;1.23;1.20;;;21.50;97.30;;;;;;4896080;29;20461;-88
2023/06/23 00:09:33;;;;;;;1.97;1.90;;;21.50;97.30;;;;;;4899288;29;20440;-88
2023/06/23 00:12:02;;;;;;;4.10;1.37;;;21.40;97.30;;;;;;4889723;29;20438;-87
2023/06/23 00:15:13;;;;;;;;;;;;;;;;;;;;;
2023/06/23 00:22:03;;;;;;;1.30;1.20;;;21.10;97.30;;;;;;4874167;29;20414;-88
2023/06/23 04:04:24;;;;;;;1.63;1.50;;;20.50;97.30;;;;;;4923306;29;20503;-66
2023/06/23 04:06:52;;;;;;;2.23;2.03;;;20.50;97.30;;;;;;4928351;29;20447;-66
2023/06/23 04:09:19;;;;;;;1.13;1.03;;;20.50;97.30;;;;;;4930176;29;20431;-67
2023/06/23 04:11:47;;;;;;;1.57;1.53;;;20.50;97.30;;;;;;4930026;29;20463;-67
2023/06/23 04:14:14;;;;;;;1.57;1.47;;;20.40;97.30;;;;;;4912288;29;20981;-67
2023/06/23 04:16:41;;;;;;;1.40;1.30;;;20.40;97.30;;;;;;4913704;29;20439;-67
2023/06/23 04:19:10;;;;;;;1.10;1.00;;;20.30;97.30;;;;;;4911176;29;20466;-67
2023/06/23 04:21:37;;;;;;;1.23;1.13;;;20.30;97.30;;;;;;4912536;29;20479;-66
2023/06/23 04:24:04;;;;;;;2.70;1.60;;;20.30;97.30;;;;;;4912004;29;20421;-66
2023/06/23 04:26:31;;;;;;;3.23;2.43;;;20.40;97.30;;;;;;4905672;29;20436;-66
2023/06/23 04:28:59;;;;;;;2.07;1.97;;;20.40;97.30;;;;;;4912156;29;20472;-67
2023/06/23 04:31:27;;;;;;;2.70;1.93;;;20.50;97.30;;;;;;4911844;29;20527;-67
2023/06/23 04:33:53;;;;;;;1.70;1.57;;;20.60;97.30;;;;;;4913254;29;20425;-67
2023/06/23 04:36:22;;;;;;;1.37;1.10;;;20.60;97.30;;;;;;4912808;29;21010;-67
2023/06/23 04:38:53;;;;;;;8.23;1.57;;;20.70;97.30;;;;;;4910533;29;20518;-67
2023/06/23 04:41:22;;;;;;;2.70;1.67;;;20.80;97.30;;;;;;4908967;29;20491;-68
2023/06/23 04:43:52;;;;;;;1.77;1.27;;;20.90;97.30;;;;;;4909979;29;21010;-68
2023/06/23 04:46:25;;;;;;;1.70;1.60;;;20.90;97.30;;;;;;4909894;29;20561;-67
2023/06/23 04:48:54;;;;;;;1.60;1.50;;;21.00;97.30;;;;;;4908024;29;21033;-67
2023/06/23 04:51:24;;;;;;;2.27;2.07;;;21.00;97.30;;;;;;4911585;29;20423;-66
2023/06/23 04:53:56;;;;;;;1.37;1.27;;;21.00;97.30;;;;;;4907789;29;20432;-66
2023/06/23 04:56:28;;;;;;;1.77;1.67;;;21.10;97.30;;;;;;4907401;29;20447;-67
2023/06/23 04:58:57;;;;;;;1.97;1.60;;;21.10;97.30;;;;;;4904072;29;20447;-67
2023/06/23 05:01:24;;;;;;;3.83;2.43;;;21.20;97.30;;;;;;4909968;29;20440;-68
2023/06/23 05:03:52;;;;;;;2.07;1.93;;;21.20;97.30;;;;;;4910840;29;20496;-69
2023/06/23 05:06:20;;;;;;;1.90;1.80;;;21.30;97.30;;;;;;4909198;29;20436;-67
2023/06/23 05:08:48;;;;;;;3.43;1.97;;;21.30;97.30;;;;;;4909329;29;20473;-68
2023/06/23 05:11:14;;;;;;;30.70;3.13;;;21.40;97.30;;;;;;4910134;29;20492;-69
2023/06/23 05:13:41;;;;;;;4.10;2.43;;;21.50;97.30;;;;;;4900881;29;20536;-68
2023/06/23 05:16:11;;;;;;;1.90;1.80;;;21.50;97.30;;;;;;4908392;29;20953;-69
2023/06/23 05:18:38;;;;;;;7.43;2.13;;;21.60;97.30;;;;;;4906208;29;20456;-68
2023/06/23 05:21:05;;;;;;;7.67;2.13;;;21.70;97.30;;;;;;4908595;29;21040;-69
2023/06/23 05:23:36;;;;;;;2.50;1.50;;;21.70;97.30;;;;;;4907614;29;20491;-68
2023/06/23 05:26:05;;;;;;;6.80;2.30;;;21.70;97.30;;;;;;4909826;29;20416;-69
2023/06/23 05:28:35;;;;;;;1.50;1.40;;;21.80;97.30;;;;;;4908582;29;20472;-69
2023/06/23 05:31:03;;;;;;;2.73;2.27;;;21.80;97.30;;;;;;4910500;29;20873;-68
2023/06/23 05:33:31;;;;;;;3.27;2.10;;;21.90;97.30;;;;;;4910568;29;20794;-68
2023/06/23 05:35:58;;;;;;;11.63;2.50;;;21.90;97.30;;;;;;4907817;29;20435;-68
2023/06/23 05:38:26;;;;;;;3.00;1.63;;;21.90;97.30;;;;;;4911234;29;20424;-69
2023/06/23 05:40:51;;;;;;;2.07;1.90;;;22.00;97.30;;;;;;4912041;29;20945;-69
2023/06/23 05:43:17;;;;;;;7.50;2.63;;;22.00;97.30;;;;;;4912067;29;20483;-68
2023/06/23 05:45:43;;;;;;;6.47;1.90;;;22.00;97.30;;;;;;4918990;29;20188;-69
2023/06/23 05:48:33;;;;;;;1.87;1.77;;;22.00;97.30;;;;;;4911893;29;20679;-69
2023/06/23 05:51:04;;;;;;;1.80;1.70;;;22.00;97.30;;;;;;4912187;29;20191;-70
2023/06/23 05:53:31;;;;;;;1.30;1.20;;;22.00;97.30;;;;;;4909961;29;20674;-69
2023/06/23 05:56:04;;;;;;;3.90;2.80;;;22.00;97.30;;;;;;4918819;29;20415;-72
2023/06/23 05:58:33;;;;;;;2.80;2.00;;;22.00;97.30;;;;;;4912186;29;20424;-70
2023/06/23 06:01:04;;;;;;;3.17;2.43;;;22.00;97.30;;;;;;4910454;29;20439;-71
2023/06/23 06:03:35;;;;;;;4.70;3.40;;;22.00;97.30;;;;;;4909455;29;20490;-71
2023/06/23 06:06:03;;;;;;;3.20;2.20;;;22.00;97.30;;;;;;4909622;29;20922;-71
2023/06/23 06:08:29;;;;;;;13.87;5.00;;;22.00;97.30;;;;;;4909832;29;20511;-71
2023/06/23 06:10:57;;;;;;;3.40;2.77;;;22.00;97.30;;;;;;4911258;29;20448;-71
2023/06/23 06:13:25;;;;;;;2.47;2.30;;;22.00;97.30;;;;;;4911610;29;20200;-71
2023/06/23 06:15:52;;;;;;;10.97;2.50;;;22.00;97.30;;;;;;4910389;29;20433;-71
2023/06/23 06:18:19;;;;;;;2.97;2.30;;;22.00;97.30;;;;;;4904065;29;20496;-71
2023/06/23 06:20:47;;;;;;;14.80;3.40;;;22.00;97.30;;;;;;4910045;29;20931;-67
2023/06/23 06:23:14;;;;;;;3.83;2.60;;;22.10;97.30;;;;;;4909750;29;20452;-70
2023/06/23 06:25:41;;;;;;;7.73;1.97;;;22.10;97.30;;;;;;4906482;29;20432;-75
2023/06/23 06:28:12;;;;;;;2.47;2.17;;;22.00;97.30;;;;;;4904395;29;20971;-72
2023/06/23 06:30:39;;;;;;;1.80;1.77;;;22.00;97.30;;;;;;4909608;29;20487;-78
2023/06/23 06:33:07;;;;;;;1.47;1.37;;;22.10;97.30;;;;;;4909593;29;20444;-77
2023/06/23 06:35:35;;;;;;;2.63;2.00;;;22.10;97.30;;;;;;4907007;29;20441;-76
2023/06/23 06:38:03;;;;;;;2.80;1.20;;;22.00;97.30;;;;;;4910460;29;20432;-75
2023/06/23 06:40:29;;;;;;;3.50;1.63;;;22.00;97.30;;;;;;4910527;29;20432;-75
2023/06/23 06:42:55;;;;;;;1.40;1.30;;;21.90;97.30;;;;;;4907053;29;20474;-76
2023/06/23 06:45:20;;;;;;;2.03;1.90;;;21.80;97.30;;;;;;4907991;29;20520;-73
2023/06/23 06:47:48;;;;;;;1.43;1.07;;;21.70;97.30;;;;;;4909989;29;20215;-73
2023/06/23 06:50:15;;;;;;;2.07;1.20;;;21.70;97.30;;;;;;4906482;29;20180;-76
2023/06/23 06:52:43;;;;;;;1.20;1.10;;;21.70;97.30;;;;;;4908679;29;20444;-73
2023/06/23 06:55:15;;;;;;;1.40;1.30;;;21.70;97.30;;;;;;4910708;29;21027;-76
2023/06/23 06:57:41;;;;;;;1.90;1.80;;;21.70;97.30;;;;;;4905168;29;20751;-72
2023/06/23 07:00:09;;;;;;;4.73;1.73;;;21.70;97.30;;;;;;4910395;29;20424;-73
2023/06/23 07:02:37;;;;;;;1.17;1.07;;;21.70;97.30;;;;;;4910301;29;20973;-74
2023/06/23 07:05:04;;;;;;;1.87;1.77;;;21.70;97.30;;;;;;4905864;29;20425;-74
2023/06/23 07:07:30;;;;;;;2.40;1.63;;;21.70;97.30;;;;;;4903834;29;21021;-73
2023/06/23 07:09:56;;;;;;;2.50;1.63;;;21.70;97.30;;;;;;4909316;29;20432;-62
2023/06/23 07:12:23;;;;;;;1.93;1.83;;;21.60;97.30;;;;;;4910549;29;20665;-67
2023/06/23 07:14:49;;;;;;;1.20;1.10;;;21.50;97.30;;;;;;4914184;29;20654;-67
2023/06/23 07:17:14;;;;;;;1.77;1.67;;;21.40;97.30;;;;;;4912002;29;20424;-66
2023/06/23 07:19:40;;;;;;;1.73;1.63;;;21.30;97.30;;;;;;4910588;29;20424;-66
2023/06/23 07:22:07;;;;;;;1.57;1.33;;;21.20;97.30;;;;;;4913659;29;20566;-66
2023/06/23 07:24:32;;;;;;;1.30;1.20;;;21.10;97.30;;;;;;4918089;29;20243;-66
2023/06/23 07:26:58;;;;;;;2.90;1.50;;;21.10;97.30;;;;;;4905198;29;20950;-66
2023/06/23 07:29:26;;;;;;;2.50;1.73;;;20.90;97.30;;;;;;4910662;29;20236;-66
2023/06/23 07:31:52;;;;;;;1.40;1.30;;;20.90;97.30;;;;;;4912197;29;20491;-66
2023/06/23 07:34:17;;;;;;;1.60;1.50;;;21.00;97.30;;;;;;4913387;29;20969;-66
2023/06/23 07:36:43;;;;;;;2.60;1.83;;;21.00;97.30;;;;;;4911027;29;20267;-66
2023/06/23 07:39:10;;;;;;;1.60;1.50;;;20.90;97.30;;;;;;4915062;29;20199;-65
2023/06/23 07:41:35;;;;;;;3.63;2.27;;;21.00;97.30;;;;;;4916930;29;20516;-66
2023/06/23 07:44:01;;;;;;;2.73;1.80;;;21.00;97.30;;;;;;4911299;29;20444;-65
2023/06/23 07:46:27;;;;;;;1.53;1.47;;;21.10;97.30;;;;;;4911083;29;20192;-66
2023/06/23 07:48:52;;;;;;;1.40;1.30;;;21.00;97.30;;;;;;4912820;29;20287;-66
2023/06/23 07:51:18;;;;;;;1.70;1.57;;;21.00;97.30;;;;;;4911073;29;20220;-66
2023/06/23 07:53:43;;;;;;;1.60;1.37;;;20.90;97.30;;;;;;4913164;29;20180;-65
2023/06/23 07:56:12;;;;;;;1.83;1.73;;;20.90;97.30;;;;;;4911072;29;20193;-66
2023/06/23 07:58:38;;;;;;;1.70;1.60;;;20.90;97.30;;;;;;4908654;29;20185;-66
2023/06/23 08:01:03;;;;;;;8.43;2.77;;;21.00;97.30;;;;;;4900141;29;20436;-66
2023/06/23 08:03:29;;;;;;;1.57;1.30;;;20.90;97.30;;;;;;4903149;29;20562;-65
2023/06/23 08:05:55;;;;;;;3.40;1.70;;;20.80;97.30;;;;;;4908474;29;20185;-66
2023/06/23 08:08:20;;;;;;;1.40;1.33;;;20.80;97.30;;;;;;4906216;29;20220;-65
2023/06/23 08:10:46;;;;;;;1.73;1.70;;;20.80;97.30;;;;;;4910749;29;20841;-65
2023/06/23 08:13:11;;;;;;;3.63;2.07;;;20.70;97.30;;;;;;4909432;29;20259;-66
2023/06/23 08:15:37;;;;;;;2.03;1.80;;;20.80;97.30;;;;;;4903853;29;20184;-64
2023/06/23 08:18:02;;;;;;;1.97;1.73;;;20.80;97.30;;;;;;4912540;29;20251;-66
2023/06/23 08:20:29;;;;;;;1.93;1.70;;;20.80;97.30;;;;;;4906111;29;20176;-65
2023/06/23 08:22:54;;;;;;;2.30;1.57;;;20.80;97.30;;;;;;4902562;29;20212;-65
2023/06/23 08:25:20;;;;;;;1.80;1.70;;;20.70;97.30;;;;;;4898928;29;20426;-66
2023/06/23 08:27:45;;;;;;;1.80;1.70;;;20.70;97.30;;;;;;4909927;29;20336;-82
2023/06/23 08:30:11;;;;;;;1.40;1.30;;;20.70;97.30;;;;;;4914682;29;20199;-86
2023/06/23 08:32:37;;;;;;;2.07;1.93;;;20.60;97.30;;;;;;4909931;29;20200;-83
2023/06/23 08:35:03;;;;;;;2.30;2.03;;;20.50;97.30;;;;;;4905813;29;20449;-85
2023/06/23 08:37:28;;;;;;;2.30;1.10;;;20.40;97.30;;;;;;4907475;29;20189;-83
2023/06/23 08:39:54;;;;;;;1.50;1.40;;;20.40;97.30;;;;;;4908598;29;20496;-84
2023/06/23 08:42:21;;;;;;;1.70;1.50;;;20.40;97.30;;;;;;4908485;29;20212;-85
2023/06/23 08:44:48;;;;;;;1.10;1.00;;;20.40;97.30;;;;;;4910469;29;20216;-86
2023/06/23 08:47:17;;;;;;;1.57;1.43;;;20.40;97.30;;;;;;4914880;29;20429;-84
2023/06/23 08:49:44;;;;;;;1.60;1.53;;;20.40;97.30;;;;;;4908837;29;20921;-83
2023/06/23 08:52:11;;;;;;;2.03;1.80;;;20.40;97.30;;;;;;4908769;29;20475;-84
2023/06/23 08:54:37;;;;;;;1.77;1.67;;;20.40;97.30;;;;;;4908795;29;20429;-84
2023/06/23 08:57:03;;;;;;;2.40;1.90;;;20.50;97.30;;;;;;4911398;29;20634;-79
2023/06/23 08:59:30;;;;;;;2.83;2.20;;;20.50;97.30;;;;;;4910608;29;20189;-83
2023/06/23 09:01:56;;;;;;;1.47;1.37;;;20.50;97.30;;;;;;4911091;29;20444;-82
2023/06/23 09:04:21;;;;;;;1.50;1.40;;;20.50;97.30;;;;;;4910676;29;20425;-84
2023/06/23 09:06:47;;;;;;;2.57;2.07;;;20.60;97.30;;;;;;4911433;29;20188;-84
2023/06/23 09:09:13;;;;;;;1.67;1.47;;;20.60;97.30;;;;;;4908984;29;20200;-84
2023/06/23 09:11:39;;;;;;;3.73;2.00;;;20.60;97.30;;;;;;4911312;29;20201;-85
2023/06/23 09:14:07;;;;;;;1.67;1.57;;;20.60;97.30;;;;;;4911727;29;20189;-86
2023/06/23 09:16:34;;;;;;;1.63;1.57;;;20.60;97.30;;;;;;4909911;29;20456;-83
2023/06/23 09:19:02;;;;;;;1.40;1.30;;;20.60;97.30;;;;;;4909995;29;20520;-85
2023/06/23 09:21:28;;;;;;;1.90;1.80;;;20.60;97.30;;;;;;4909265;29;20531;-82
2023/06/23 09:24:20;;;;;;;1.40;1.30;;;20.60;97.30;;;;;;4910165;29;20429;-84
2023/06/23 09:26:52;;;;;;;1.83;1.40;;;20.60;97.30;;;;;;4908437;29;20436;-84
2023/06/23 09:29:23;;;;;;;1.53;1.20;;;20.60;97.30;;;;;;4913097;29;20476;-84
2023/06/23 09:31:50;;;;;;;1.40;1.30;;;20.60;97.30;;;;;;4910822;29;20823;-84
2023/06/23 09:34:26;;;;;;;1.37;1.37;;;20.60;97.30;;;;;;4910212;29;20476;-85
2023/06/23 09:36:53;;;;;;;1.53;1.40;;;20.60;97.30;;;;;;4910109;29;20421;-87
2023/06/23 09:39:19;;;;;;;1.50;1.40;;;20.70;97.30;;;;;;4910791;29;21007;-86
2023/06/23 09:41:52;;;;;;;1.20;1.10;;;20.70;97.30;;;;;;4910630;29;20694;-85
2023/06/23 09:44:17;;;;;;;2.10;1.57;;;20.60;97.30;;;;;;4911089;29;20472;-85
2023/06/23 09:46:43;;;;;;;1.60;1.50;;;20.60;97.30;;;;;;4909832;29;20457;-84
2023/06/23 09:49:08;;;;;;;1.97;1.90;;;20.60;97.30;;;;;;4895189;29;20223;-85
2023/06/23 09:51:44;;;;;;;2.07;1.27;;;20.60;97.30;;;;;;4911016;29;20214;-85
2023/06/23 09:54:10;;;;;;;2.83;1.83;;;20.70;97.30;;;;;;4914002;29;20195;-84
2023/06/23 09:56:35;;;;;;;1.30;1.20;;;20.70;97.30;;;;;;4911633;29;20464;-83
2023/06/23 09:59:02;;;;;;;4.63;1.93;;;20.80;97.30;;;;;;4909126;29;20207;-85
2023/06/23 10:01:28;;;;;;;1.40;1.27;;;20.80;97.30;;;;;;4910281;29;20735;-83
2023/06/23 10:03:56;;;;;;;1.50;1.20;;;20.80;97.30;;;;;;4911118;29;20476;-84
2023/06/23 10:06:23;;;;;;;1.30;1.20;;;20.80;97.30;;;;;;4908105;29;20196;-83
2023/06/23 10:08:56;;;;;;;9.23;1.43;;;20.80;97.30;;;;;;4911261;29;20461;-85
2023/06/23 10:11:32;;;;;;;3.20;2.20;;;20.80;97.30;;;;;;4916077;29;20460;-83
2023/06/23 10:14:05;;;;;;;1.73;1.63;;;20.80;97.30;;;;;;4911042;29;20420;-83
2023/06/23 10:16:32;;;;;;;1.53;1.47;;;20.80;97.30;;;;;;4908603;29;20441;-84
2023/06/23 10:18:58;;;;;;;5.60;1.43;;;20.90;97.30;;;;;;4910637;29;20436;-83
2023/06/23 10:21:24;;;;;;;2.20;1.50;;;20.90;97.30;;;;;;4908514;29;20449;-84
2023/06/23 10:23:53;;;;;;;2.40;1.37;;;20.90;97.30;;;;;;4910279;29;20227;-83
2023/06/23 10:26:19;;;;;;;2.47;1.47;;;20.90;97.30;;;;;;4907573;29;20797;-84
2023/06/23 10:28:47;;;;;;;1.63;1.50;;;20.90;97.30;;;;;;4910342;29;20472;-86
2023/06/23 10:31:13;;;;;;;1.30;1.20;;;20.90;97.30;;;;;;4910697;29;20188;-82
2023/06/23 10:33:41;;;;;;;1.00;1.00;;;20.90;97.30;;;;;;4907721;29;20759;-84
2023/06/23 10:36:08;;;;;;;1.57;1.47;;;20.90;97.30;;;;;;4925834;29;20432;-84
2023/06/23 10:38:37;;;;;;;2.47;1.07;;;20.90;97.30;;;;;;4908820;29;20442;-82
2023/06/23 10:41:02;;;;;;;1.40;1.30;;;20.90;97.30;;;;;;4908662;29;20421;-82
2023/06/23 10:43:31;;;;;;;1.20;1.10;;;20.90;97.30;;;;;;4909379;29;20445;-81
2023/06/23 10:45:59;;;;;;;1.07;0.97;;;20.80;97.30;;;;;;4910481;29;20757;-82
2023/06/23 10:48:26;;;;;;;2.37;2.20;;;20.80;97.30;;;;;;4911926;29;20460;-81
2023/06/23 10:50:52;;;;;;;1.50;1.30;;;20.80;97.30;;;;;;4913806;29;20956;-81
2023/06/23 10:53:20;;;;;;;1.43;1.33;;;20.80;97.30;;;;;;4911957;29;20480;-81
2023/06/23 10:55:47;;;;;;;1.90;1.30;;;20.80;97.30;;;;;;4916781;29;20424;-81
2023/06/23 10:58:21;;;;;;;2.33;1.57;;;20.80;97.30;;;;;;4931661;23;20565;-91
2023/06/23 11:00:59;;;;;;;1.60;1.50;;;20.80;97.30;;;;;;4922297;29;20455;-91
2023/06/23 11:03:29;;;;;;;1.40;1.30;;;20.80;97.30;;;;;;4909022;29;20581;-91
2023/06/23 11:06:06;;;;;;;1.40;1.30;;;20.80;97.30;;;;;;4916147;29;20865;-91
2023/06/23 11:08:34;;;;;;;1.20;1.20;;;20.80;97.30;;;;;;4905383;29;21018;-91
2023/06/23 11:11:11;;;;;;;1.37;1.27;;;20.80;97.30;;;;;;4903464;29;20425;-91
2023/06/23 11:13:51;;;;;;;1.10;1.10;;;20.80;97.30;;;;;;4890803;29;20410;-91
2023/06/23 11:16:39;;;;;;;3.43;1.70;;;20.80;97.30;;;;;;4895523;29;20412;-91
2023/06/23 11:19:05;;;;;;;1.47;1.37;;;20.70;97.30;;;;;;4893413;29;20453;-91
2023/06/23 11:21:32;;;;;;;1.43;1.40;;;20.70;97.30;;;;;;4895740;29;20444;-90
2023/06/23 11:24:20;;;;;;;1.40;1.30;;;20.70;97.30;;;;;;4895588;29;20588;-91
2023/06/23 11:26:48;;;;;;;1.07;1.00;;;20.70;97.30;;;;;;4901888;29;20464;-90
2023/06/23 11:29:17;;;;;;;1.47;1.10;;;20.70;97.30;;;;;;4893781;29;20537;-91
2023/06/23 11:32:12;;;;;;;2.20;1.27;;;20.70;97.30;;;;;;4892844;29;20429;-91
2023/06/23 11:34:49;;;;;;;2.00;1.90;;;20.70;97.30;;;;;;4885163;29;20517;-91
2023/06/23 11:37:15;;;;;;;1.50;1.40;;;20.70;97.30;;;;;;4891903;29;20476;-91
2023/06/23 11:39:41;;;;;;;1.40;1.20;;;20.70;97.30;;;;;;4890305;29;21124;-91
2023/06/23 11:42:07;;;;;;;1.20;1.10;;;20.60;97.30;;;;;;4905481;29;20418;-91
2023/06/23 11:44:32;;;;;;;1.20;1.10;;;20.60;97.30;;;;;;4889115;29;20249;-91
2023/06/23 11:47:00;;;;;;;1.20;1.10;;;20.60;97.30;;;;;;4890148;29;20189;-91
2023/06/23 11:49:27;;;;;;;3.27;1.43;;;20.60;97.30;;;;;;4896004;29;20244;-91
2023/06/23 11:51:52;;;;;;;1.40;1.30;;;20.60;97.30;;;;;;4896376;29;20414;-92
2023/06/23 11:54:19;;;;;;;1.27;1.17;;;20.60;97.30;;;;;;4894907;29;20426;-92
2023/06/23 11:56:45;;;;;;;1.30;1.10;;;20.60;97.30;;;;;;4894083;29;20191;-91
2023/06/23 11:59:12;;;;;;;1.47;1.47;;;20.50;97.30;;;;;;4894495;29;20487;-91
2023/06/23 12:01:38;;;;;;;1.20;1.13;;;20.50;97.30;;;;;;4902646;29;20431;-91
2023/06/23 12:04:05;;;;;;;1.27;1.17;;;20.50;97.30;;;;;;4895630;29;20426;-91
2023/06/23 12:06:35;;;;;;;1.50;1.40;;;20.50;97.30;;;;;;4892427;29;20181;-91
2023/06/23 12:09:02;;;;;;;2.30;2.10;;;20.60;97.30;;;;;;4888557;29;20473;-91
2023/06/23 12:11:29;;;;;;;1.37;1.03;;;20.60;97.30;;;;;;4903345;29;20493;-91
2023/06/23 12:13:57;;;;;;;1.97;1.87;;;20.60;97.30;;;;;;4888059;29;20417;-91
2023/06/23 12:16:22;;;;;;;1.73;1.63;;;20.60;97.30;;;;;;4903711;29;20430;-91
2023/06/23 12:18:49;;;;;;;2.70;2.23;;;20.60;97.30;;;;;;4895136;29;20566;-91
2023/06/23 12:21:16;;;;;;;1.40;1.30;;;20.60;97.30;;;;;;4891754;29;20436;-90
2023/06/23 12:23:43;;;;;;;2.00;1.20;;;20.60;97.30;;;;;;4902608;29;20458;-92
2023/06/23 12:26:09;;;;;;;1.93;1.13;;;20.60;97.30;;;;;;4893620;29;20429;-90
2023/06/23 12:28:35;;;;;;;1.10;1.03;;;20.60;97.30;;;;;;4902519;29;20572;-89
2023/06/23 12:31:00;;;;;;;4.33;1.67;;;20.60;97.30;;;;;;4893174;29;20212;-90
2023/06/23 12:33:30;;;;;;;1.33;1.17;;;20.60;97.30;;;;;;4886757;29;20241;-89
2023/06/23 12:36:05;;;;;;;1.57;1.30;;;20.60;97.30;;;;;;4894894;29;20187;-90
2023/06/23 12:38:33;;;;;;;1.20;1.10;;;20.60;97.30;;;;;;4893819;29;20483;-91
2023/06/23 12:41:15;;;;;;;1.40;1.30;;;20.50;97.30;;;;;;4889642;29;20461;-90
2023/06/23 12:43:42;;;;;;;1.23;1.13;;;20.50;97.30;;;;;;4886351;29;20510;-90
2023/06/23 12:46:11;;;;;;;1.10;1.00;;;20.40;97.30;;;;;;4890494;29;20479;-91
2023/06/23 12:48:40;;;;;;;1.10;1.00;;;20.20;97.30;;;;;;4882049;29;20480;-90
2023/06/23 12:51:06;;;;;;;1.23;1.13;;;20.10;97.30;;;;;;4899993;29;20440;-90
2023/06/23 12:53:33;;;;;;;1.30;1.20;;;19.90;97.30;;;;;;4887184;29;20426;-90
2023/06/23 12:55:59;;;;;;;1.83;1.17;;;19.70;97.30;;;;;;4889489;29;20417;-92
2023/06/23 12:58:24;;;;;;;1.20;1.10;;;19.50;97.30;;;;;;4890255;29;20468;-90
2023/06/23 13:00:50;;;;;;;1.03;0.93;;;19.40;97.30;;;;;;4895231;29;20939;-89
2023/06/23 13:03:16;;;;;;;1.30;1.20;;;19.20;97.30;;;;;;4900138;29;20744;-89
2023/06/23 13:05:42;;;;;;;1.00;0.90;;;19.10;97.30;;;;;;4901120;29;20198;-90
2023/06/23 13:08:09;;;;;;;1.20;1.10;;;18.90;97.30;;;;;;4892079;29;20212;-90
2023/06/23 13:10:40;;;;;;;1.53;1.30;;;18.80;97.30;;;;;;4882215;29;20433;-91
2023/06/23 13:13:06;;;;;;;1.10;1.00;;;18.80;97.30;;;;;;4890345;29;20464;-90
2023/06/23 13:15:31;;;;;;;1.17;1.00;;;18.70;97.30;;;;;;4884019;29;20457;-89
2023/06/23 13:17:58;;;;;;;1.30;1.20;;;18.60;97.30;;;;;;4886727;29;20186;-86
2023/06/23 13:20:23;;;;;;;1.47;1.37;;;18.60;97.30;;;;;;4892264;29;20286;-91
2023/06/23 13:22:49;;;;;;;40.70;2.00;;;18.60;97.30;;;;;;4887124;29;20437;-90
2023/06/23 13:25:15;;;;;;;1.00;1.00;;;18.60;97.30;;;;;;4891926;29;20178;-90
2023/06/23 13:27:40;;;;;;;1.30;1.20;;;18.50;97.30;;;;;;4905795;29;20249;-90
2023/06/23 13:30:07;;;;;;;1.83;1.73;;;18.50;97.30;;;;;;4885555;29;20217;-90
2023/06/23 13:32:33;;;;;;;1.10;1.00;;;18.50;97.30;;;;;;4899279;29;20222;-90
2023/06/23 13:34:59;;;;;;;1.00;0.90;;;18.50;97.30;;;;;;4877875;29;20616;-90
2023/06/23 13:37:24;;;;;;;0.90;0.80;;;18.50;97.30;;;;;;4883944;29;20216;-90
2023/06/23 13:39:50;;;;;;;1.07;0.97;;;18.50;97.30;;;;;;4892386;29;20441;-90
2023/06/23 13:42:16;;;;;;;1.00;0.90;;;18.40;97.30;;;;;;4879332;29;20178;-92
2023/06/23 13:44:42;;;;;;;1.17;1.07;;;18.40;97.30;;;;;;4915547;29;20189;-89
2023/06/23 13:47:07;;;;;;;0.90;0.80;;;18.30;97.30;;;;;;4876461;29;20518;-91
2023/06/23 13:49:33;;;;;;;1.03;0.97;;;18.30;97.30;;;;;;4876303;29;20217;-90
2023/06/23 13:51:58;;;;;;;1.10;1.00;;;18.20;97.30;;;;;;4892194;29;20271;-90
2023/06/23 13:54:26;;;;;;;1.20;1.10;;;18.10;97.30;;;;;;4891952;29;20185;-90
2023/06/23 13:56:52;;;;;;;1.77;1.53;;;18.10;97.30;;;;;;4891822;29;20185;-91
2023/06/23 13:59:17;;;;;;;1.40;1.30;;;18.00;97.30;;;;;;4879202;29;20470;-91
2023/06/23 14:01:43;;;;;;;1.87;1.20;;;18.00;97.30;;;;;;4901182;29;20188;-89
2023/06/23 14:04:08;;;;;;;0.90;0.80;;;18.00;97.30;;;;;;4900153;29;20180;-89
2023/06/23 14:06:34;;;;;;;1.00;0.90;;;18.00;97.30;;;;;;4888901;29;20494;-89
2023/06/23 14:09:00;;;;;;;1.33;1.23;;;17.90;97.30;;;;;;4888663;29;20221;-90
2023/06/23 14:11:25;;;;;;;2.40;1.50;;;17.90;97.30;;;;;;4895900;29;20189;-90
2023/06/23 14:13:51;;;;;;;1.30;1.20;;;17.80;97.30;;;;;;4890687;29;20196;-89
2023/06/23 14:16:16;;;;;;;1.20;0.97;;;17.70;97.30;;;;;;4888904;29;20643;-90
2023/06/23 14:18:43;;;;;;;1.73;1.63;;;17.50;97.30;;;;;;4885828;29;20677;-89
2023/06/23 14:21:09;;;;;;;2.80;2.60;;;17.40;97.30;;;;;;4891242;29;20271;-90
2023/06/23 14:23:34;;;;;;;1.30;1.20;;;17.30;97.30;;;;;;4893055;29;21061;-89
2023/06/23 14:26:00;;;;;;;1.33;1.20;;;17.10;97.30;;;;;;4895332;29;20467;-90
2023/06/23 14:28:27;;;;;;;1.43;1.40;;;17.00;97.30;;;;;;4895314;29;20767;-91
2023/06/23 14:30:53;;;;;;;1.20;1.10;;;17.00;97.30;;;;;;4893184;29;20276;-90
2023/06/23 14:33:18;;;;;;;1.97;1.67;;;16.90;97.30;;;;;;4894397;29;20856;-90
2023/06/23 14:35:44;;;;;;;1.20;1.10;;;16.80;97.30;;;;;;4880469;29;20473;-90
2023/06/23 14:38:09;;;;;;;1.93;1.43;;;16.70;97.30;;;;;;4895801;29;20192;-90
2023/06/23 14:40:35;;;;;;;3.37;1.97;;;16.60;97.30;;;;;;4896568;29;20215;-91
2023/06/23 14:43:02;;;;;;;2.33;2.13;;;16.60;97.30;;;;;;4905880;29;20177;-90
2023/06/23 14:45:37;;;;;;;2.30;1.33;;;16.60;97.30;;;;;;4884272;29;20277;-90
2023/06/23 14:48:04;;;;;;;1.20;1.10;;;16.50;97.30;;;;;;4888201;29;20460;-90
2023/06/23 14:50:29;;;;;;;3.80;1.77;;;16.50;97.30;;;;;;4888046;29;20429;-89
2023/06/23 14:52:55;;;;;;;1.37;1.20;;;16.40;97.30;;;;;;4899470;29;20421;-89
2023/06/23 14:55:20;;;;;;;1.33;1.27;;;16.30;97.30;;;;;;4885997;29;20649;-90
2023/06/23 14:57:46;;;;;;;1.40;1.30;;;16.30;97.30;;;;;;4882713;29;20589;-93
2023/06/23 15:00:12;;;;;;;2.60;1.43;;;16.20;97.30;;;;;;4889845;29;20265;-90
2023/06/23 15:02:38;;;;;;;1.57;1.50;;;16.20;97.30;;;;;;4889590;29;20185;-89
2023/06/23 15:05:03;;;;;;;1.33;1.30;;;16.10;97.30;;;;;;4888983;29;21024;-90
2023/06/23 15:07:29;;;;;;;1.20;1.10;;;16.10;97.30;;;;;;4887753;29;20185;-91
2023/06/23 15:09:55;;;;;;;1.30;1.20;;;16.00;97.30;;;;;;4899675;29;20205;-89
2023/06/23 15:12:20;;;;;;;1.77;1.67;;;16.00;97.30;;;;;;4901795;29;20607;-88
2023/06/23 15:14:46;;;;;;;1.27;1.17;;;16.00;97.30;;;;;;4881703;29;20186;-90
2023/06/23 15:17:11;;;;;;;1.37;1.30;;;16.00;97.30;;;;;;4893106;29;20661;-90
2023/06/23 15:19:37;;;;;;;1.20;1.10;;;15.90;97.30;;;;;;4880590;29;20259;-89
2023/06/23 15:22:03;;;;;;;1.70;1.67;;;15.90;97.30;;;;;;4889217;29;20268;-90
2023/06/23 15:24:29;;;;;;;1.23;1.23;;;15.90;97.30;;;;;;4894137;29;20192;-90
2023/06/23 15:26:55;;;;;;;1.10;1.00;;;15.90;97.30;;;;;;4908292;29;20424;-90
2023/06/23 15:29:20;;;;;;;1.50;1.40;;;15.90;97.30;;;;;;4898156;29;20473;-89
2023/06/23 15:31:46;;;;;;;1.23;1.17;;;15.80;97.30;;;;;;4889207;29;20185;-91
2023/06/23 15:34:11;;;;;;;1.70;1.53;;;15.80;97.30;;;;;;4894295;29;20285;-90
2023/06/23 15:36:37;;;;;;;2.13;1.90;;;15.80;97.30;;;;;;4885126;29;20660;-91
2023/06/23 15:39:03;;;;;;;2.23;1.83;;;15.80;97.30;;;;;;4894389;29;20210;-89
2023/06/23 15:41:28;;;;;;;1.30;1.30;;;15.80;97.30;;;;;;4893025;29;20187;-90
2023/06/23 15:43:54;;;;;;;2.10;1.60;;;15.80;97.30;;;;;;4880193;29;20190;-89
2023/06/23 15:46:19;;;;;;;2.00;1.30;;;15.70;97.30;;;;;;4886161;29;20205;-89
2023/06/23 15:48:45;;;;;;;1.33;1.23;;;15.70;97.30;;;;;;4903245;29;20212;-89
2023/06/23 15:51:11;;;;;;;2.60;1.97;;;15.70;97.30;;;;;;4893050;29;20217;-89
2023/06/23 15:53:37;;;;;;;1.80;1.77;;;15.70;97.30;;;;;;4883102;29;20201;-89
2023/06/23 15:56:04;;;;;;;2.27;1.97;;;15.70;97.30;;;;;;4887689;29;20182;-88
2023/06/23 15:58:30;;;;;;;1.90;1.63;;;15.70;97.30;;;;;;4887227;29;20545;-89
2023/06/23 16:00:55;;;;;;;1.77;1.67;;;15.70;97.30;;;;;;4887869;29;20925;-90
2023/06/23 16:03:21;;;;;;;2.20;2.00;;;15.80;97.30;;;;;;4895469;29;20430;-88
2023/06/23 16:05:46;;;;;;;1.57;1.47;;;15.80;97.30;;;;;;4888570;29;20288;-90
2023/06/23 16:08:12;;;;;;;6.10;3.10;;;15.80;97.30;;;;;;4893321;29;20213;-89
2023/06/23 16:10:38;;;;;;;1.70;1.50;;;15.90;97.30;;;;;;4895599;29;20200;-87
2023/06/23 16:13:04;;;;;;;2.20;1.87;;;15.90;97.30;;;;;;4895123;29;20434;-89
2023/06/23 16:15:29;;;;;;;10.00;2.50;;;15.90;97.30;;;;;;4891267;29;20784;-91
2023/06/23 16:17:55;;;;;;;2.43;2.20;;;15.90;97.30;;;;;;4880988;29;20201;-88
2023/06/23 16:20:21;;;;;;;2.37;2.10;;;15.90;97.30;;;;;;4883780;29;20242;-89
2023/06/23 16:22:46;;;;;;;1.60;1.57;;;16.00;97.30;;;;;;4889459;29;20193;-90
2023/06/23 16:25:12;;;;;;;2.87;2.33;;;16.00;97.30;;;;;;4881353;29;20521;-90
2023/06/23 16:27:37;;;;;;;5.57;3.43;;;16.00;97.30;;;;;;4879683;29;20201;-90
2023/06/23 16:30:04;;;;;;;1.53;1.40;;;16.00;97.30;;;;;;4895707;29;20290;-90
2023/06/23 16:32:29;;;;;;;3.00;2.40;;;16.00;97.30;;;;;;4887776;29;20269;-87
2023/06/23 16:34:58;;;;;;;2.30;1.60;;;16.00;97.30;;;;;;4891393;29;20477;-92